Wausau, WI (54401)

2:54 PM CST on February 24, 2017 (GMT -0600)
Thomas Jefferson Elementary, Across the Street | | Change Station
Active Advisory: Winter Storm Warning Active Notice: Public Information Statement

Elev 1276 ft 44.98 °N, 89.64 °W | Updated 9 seconds ago

Light Snow
Light Snow
24.4 °F
Feels Like 14 °F
N
10.0
Wind Variable Wind from NNE

Today
High -- | Low -- °F
--% Chance of Precip.
Yesterday
High -- | Low -- °F
Precip. -- in
Pressure 29.62 in
Visibility 3.0 miles
Clouds Mostly Cloudy 1800 ft
Overcast 2500 ft
Windchill 14 °F
Dew Point 19 °F
Humidity 83%
Rainfall 0.00 in
Snow Depth Not available.
6:44 AM 5:39 PM
Waning Crescent, 4% visible
SPECI KAUW 242029Z AUTO 02011G19KT 3SM -SN BKN018 OVC025 M04/M08 A2962 RMK AO2 P0000 T10441078
Pressure 29.62 in
Visibility 3.0 miles
Clouds Mostly Cloudy 1800 ft
Overcast 2500 ft
Windchill 14 °F
Dew Point 19 °F
Humidity 83%
Rainfall 0.00 in
Snow Depth Not available.
6:44 AM 5:39 PM
Waning Crescent, 4% visible
SPECI KAUW 242029Z AUTO 02011G19KT 3SM -SN BKN018 OVC025 M04/M08 A2962 RMK AO2 P0000 T10441078

Get Your Daily Forecast Email!

Thanks for signing up!

Be on the lookout for a verification email in your inbox.

You'll start receiving the daily forecast at 8 AM.

×

10-Day Weather Forecast

Almanac

Astronomy

Feb. 24, 2017 Rise Set
Actual Time
Civil Twilight
Nautical Twilight
Astronomical Twilight
Moon
Length of Visible Light
Length of Day
Tomorrow will be .
, % of the Moon is Illuminated

Today's Extremes

State Highs State Lows

Community

WunderPhotos

Upload Photos

1,962,540 photos uploaded!

WunderBlog® & News

Nearby

Air Quality

  Air Quality AQ Index Pollutant
Not available.

Snow Depth

Station Depth Elevation

Earthquake Activity

City Distance Mag. Time & Date
Minimum magnitude displayed is 2.5.

Coastal Water Temperatures

Place Temperature

Stations

Nearby Weather Stations

Station Location Temp. Windchill Dew Point Humidity Wind Precip. Elev Updated Type
                   

Watches & Warnings

Winter Storm Warning
Issued: 12:29 PM CST Feb. 24, 2017 – National Weather Service

... Winter Storm Warning remains in effect until 6 am CST
Saturday...

* periods of snow will continue this afternoon. The snow may mix
with some sleet and freezing rain or freezing drizzle at times
south of Merrill.

* Additional snow accumulations of 2 to 3 inches is expected. Some
minor icing is possible.

* Hazardous travel is expected through tonight. The combination of
snow and blustery northeast winds will reduce visibilities to
less than one half mile at times and produce some drifting of
the snow.

Precautionary/preparedness actions...

A Winter Storm Warning for heavy snow means severe winter weather
conditions are expected or occurring. Significant amounts of
snow are forecast that will make travel hazardous. If you must
travel use extreme caution, or wait until the storm has ended.
The latest Wisconsin Road conditions can be obtained by calling
511.